ブリスベン の空港の天気 - METARとTAF

ブリスベン空港 ( YBBN / BNE ) - オーストラリア クイーンズランド州ブリスベン
飛行場実況気象(Metar)
観測時間05/26 10:00 AEST (05/26 00:00 UTC)
風向・風速南西 3m/s
視程10km以上
天気現象
なし
気温21℃
湿度35%
気圧1018hPa
METARYBBN 260000Z 23005KT CAVOK 21/05 Q1018 FM0200 04009KT CAVOK
過去の天気等 Google飛行場航空写真 Wunderground天気予報

過去48時間のMETAR

飛行場予報(TAF)
発表時間: 5/26 09:04 AEST (5/25 23:04 UTC)
予報対象時間: 26日10時 AEST ~ 27日16時 AEST
風向・風速西 3m/s
視程10km以上
なし
26日13時 AEST から
風向・風速北東 5m/s
視程10km以上
なし
26日20時 AEST から
風向・風速西北西 3m/s
視程10km以上
なし
27日0時 AEST から
風向・風速南西 3m/s
視程10km以上
全天の4割程度の雲 雲底高度 1220m
27日12時 AEST から
風向・風速北北東 5m/s
視程10km以上
少しの雲 雲底高度 1220m
TAF YBBN 252304Z 2600/2706 26006KT CAVOK
FM260300 04009KT CAVOK
FM261000 29005KT CAVOK
FM261400 23006KT 9999 SCT040
FM270200 03009KT 9999 FEW040